Kyokuhoumaru No.12 — JL5963 — position and weather

sailwx.info

Track history (hours):
 
Tides and Currents Weather Stations Pressure Air Temp Water Temp Dewpoint Dewpoint Depression Visibility Wind Speed Wind Dir Waves Ship Positions

Kyokuhoumaru No.12

Last reported at 2016-May-14 04:16 UTC. Time now 2016-May-24 08:02 UTC.
Position N 34°37' E 135°03'.
Warning: this ship's position is 10 days out of date.

Length 57 m.

Type: Tanker. MMSI: 431500879.

Date/timePositionNaut miles runAvg speedWind from/ knotsBaromVisibWave heightAir tempDewpointWater temp
2016-May-14 04:16N 34°37' E 135°03'7 9.4
2016-May-14 03:30N 34°35' E 135°11'8 6.8
2016-May-14 02:19N 34°32' E 135°20'1 0.2
2016-May-13 21:29N 34°32' E 135°19'0 0.0
2016-May-13 20:23N 34°32' E 135°19'0 0.0
2016-May-13 19:29N 34°33' E 135°19'0 0.0
2016-May-13 17:05N 34°32' E 135°19'0 0.0
2016-May-13 15:17N 34°32' E 135°19'0 0.0
2016-May-13 13:17N 34°32' E 135°19'0 0.0
2016-May-13 12:29N 34°32' E 135°19'0 0.1
2016-May-13 11:27N 34°33' E 135°19'19 8.8
2016-May-13 09:21N 34°19' E 135°04'238 6.6
2016-May-11 21:32N 35°17' E 139°45'8 8.3
2016-May-11 20:33N 35°24' E 139°43'10 9.8
2016-May-11 19:33N 35°31' E 139°52'5 5.1
2016-May-11 18:33N 35°36' E 139°54'0 0.0
2016-May-11 17:30N 35°36' E 139°54'0 0.0
2016-May-11 16:21N 35°36' E 139°54'0 0.0
2016-May-11 15:33N 35°36' E 139°54'0 0.0
2016-May-11 14:24N 35°36' E 139°54'0 0.0
2016-May-11 13:21N 35°36' E 139°54'0 0.0
2016-May-11 12:33N 35°36' E 139°54'0 0.0
2016-May-11 11:33N 35°36' E 139°54'0 0.0
2016-May-11 10:33N 35°36' E 139°54'0 0.0
2016-May-11 09:33N 35°36' E 139°54'0 0.0
2016-May-11 08:27N 35°36' E 139°54'0 0.0
2016-May-11 07:24N 35°36' E 139°54'0 0.0
2016-May-11 06:27N 35°36' E 139°54'0 0.0
2016-May-11 03:33N 35°36' E 139°54'0 0.0
2016-May-11 02:33N 35°36' E 139°54'0 0.0
2016-May-11 01:33N 35°36' E 139°54'0 0.0
2016-May-11 00:33N 35°36' E 139°54'0 0.0
2016-May-10 23:33N 35°36' E 139°54'0 0.0
2016-May-10 22:30N 35°36' E 139°54'0 0.0
2016-May-10 21:33N 35°36' E 139°54'0 0.0
2016-May-10 20:33N 35°36' E 139°54'0 0.0
2016-May-10 19:33N 35°36' E 139°54'0 0.0
2016-May-10 18:21N 35°36' E 139°54'0 0.1
2016-May-10 17:30N 35°36' E 139°54'0 0.0
2016-May-10 16:27N 35°36' E 139°54'0 0.0
2016-May-10 15:33N 35°36' E 139°54'0 0.1
2016-May-10 14:33N 35°36' E 139°54'0 0.0
2016-May-10 13:33N 35°36' E 139°54'0 0.0
2016-May-10 12:33N 35°36' E 139°54'0 0.0
2016-May-10 11:33N 35°36' E 139°54'0 0.1
2016-May-10 10:30N 35°36' E 139°54'0 0.0
2016-May-10 09:24N 35°36' E 139°54'0 0.1
2016-May-10 08:33N 35°36' E 139°54'0 0.0
2016-May-10 07:33N 35°36' E 139°54'2 2.4
2016-May-10 06:33N 35°37' E 139°57'4 4.4
2016-May-10 05:33N 35°41' E 139°57'0 0.0
2016-May-10 04:24N 35°41' E 139°57'2 2.4
2016-May-10 03:31N 35°39' E 139°58'4 4.5
2016-May-10 02:32N 35°36' E 139°54'0 0.0
2016-May-10 01:29N 35°36' E 139°54'0 0.1
2016-May-10 00:32N 35°36' E 139°54'0 0.0
2016-May-09 23:32N 35°36' E 139°54'0 0.0
2016-May-09 22:29N 35°36' E 139°54'0 0.0
2016-May-09 21:29N 35°36' E 139°54'0 0.0
2016-May-09 20:32N 35°36' E 139°54'0 0.0
2016-May-09 19:29N 35°36' E 139°54'0 0.0
2016-May-09 18:32N 35°36' E 139°54'0 0.0
2016-May-09 17:20N 35°36' E 139°54'0 0.0
2016-May-09 16:32N 35°36' E 139°54'0 0.0
2016-May-09 15:32N 35°36' E 139°54'0 0.0
2016-May-09 14:32N 35°36' E 139°54'0 0.0
2016-May-09 13:32N 35°36' E 139°54'0 0.0
2016-May-09 12:32N 35°36' E 139°54'0 0.0
2016-May-09 11:29N 35°36' E 139°54'0 0.1
2016-May-09 10:32N 35°36' E 139°54'0 0.0
2016-May-09 09:32N 35°36' E 139°54'0 0.1
2016-May-09 08:32N 35°36' E 139°54'0 0.0
2016-May-09 07:32N 35°36' E 139°54'0 0.0
2016-May-09 06:32N 35°36' E 139°54'0 0.0
2016-May-09 05:32N 35°36' E 139°54'0 0.0
2016-May-09 04:32N 35°36' E 139°54'0 0.0
2016-May-09 03:32N 35°36' E 139°54'0 0.0
2016-May-09 02:32N 35°36' E 139°54'0 0.0
2016-May-09 01:32N 35°36' E 139°54'0 0.0
2016-May-09 00:26N 35°36' E 139°54'0 0.0
2016-May-08 23:29N 35°36' E 139°54'0 0.0
2016-May-08 22:32N 35°36' E 139°54'0 0.0
2016-May-08 21:32N 35°36' E 139°54'0 0.0
2016-May-08 20:29N 35°36' E 139°54'0 0.1
2016-May-08 19:32N 35°36' E 139°54'0 0.0
2016-May-08 18:32N 35°36' E 139°54'3 2.5
2016-May-08 17:32N 35°34' E 139°53'9 9.1
2016-May-08 16:33N 35°26' E 139°48'  
Track history (hours):
 
Tides and Currents Weather Stations Pressure Air Temp Water Temp Dewpoint Dewpoint Depression Visibility Wind Speed Wind Dir Waves Ship Positions

Kyokuhoumaru No.12

Last reported at 2016-May-14 04:16 UTC. Time now 2016-May-24 08:02 UTC.
Position N 34°37' E 135°03'.
Warning: this ship's position is 10 days out of date.

Length 57 m.

Type: Tanker. MMSI: 431500879.

Date/timePositionNaut miles runAvg speedWind from/ knotsBaromVisibWave heightAir tempDewpointWater temp
2016-May-14 04:16N 34°37' E 135°03'7 9.4
2016-May-14 03:30N 34°35' E 135°11'8 6.8
2016-May-14 02:19N 34°32' E 135°20'1 0.2
2016-May-13 21:29N 34°32' E 135°19'0 0.0
2016-May-13 20:23N 34°32' E 135°19'0 0.0
2016-May-13 19:29N 34°33' E 135°19'0 0.0
2016-May-13 17:05N 34°32' E 135°19'0 0.0
2016-May-13 15:17N 34°32' E 135°19'0 0.0
2016-May-13 13:17N 34°32' E 135°19'0 0.0
2016-May-13 12:29N 34°32' E 135°19'0 0.1
2016-May-13 11:27N 34°33' E 135°19'19 8.8
2016-May-13 09:21N 34°19' E 135°04'238 6.6
2016-May-11 21:32N 35°17' E 139°45'8 8.3
2016-May-11 20:33N 35°24' E 139°43'10 9.8
2016-May-11 19:33N 35°31' E 139°52'5 5.1
2016-May-11 18:33N 35°36' E 139°54'0 0.0
2016-May-11 17:30N 35°36' E 139°54'0 0.0
2016-May-11 16:21N 35°36' E 139°54'0 0.0
2016-May-11 15:33N 35°36' E 139°54'0 0.0
2016-May-11 14:24N 35°36' E 139°54'0 0.0
2016-May-11 13:21N 35°36' E 139°54'0 0.0
2016-May-11 12:33N 35°36' E 139°54'0 0.0
2016-May-11 11:33N 35°36' E 139°54'0 0.0
2016-May-11 10:33N 35°36' E 139°54'0 0.0
2016-May-11 09:33N 35°36' E 139°54'0 0.0
2016-May-11 08:27N 35°36' E 139°54'0 0.0
2016-May-11 07:24N 35°36' E 139°54'0 0.0
2016-May-11 06:27N 35°36' E 139°54'0 0.0
2016-May-11 03:33N 35°36' E 139°54'0 0.0
2016-May-11 02:33N 35°36' E 139°54'0 0.0
2016-May-11 01:33N 35°36' E 139°54'0 0.0
2016-May-11 00:33N 35°36' E 139°54'0 0.0
2016-May-10 23:33N 35°36' E 139°54'0 0.0
2016-May-10 22:30N 35°36' E 139°54'0 0.0
2016-May-10 21:33N 35°36' E 139°54'0 0.0
2016-May-10 20:33N 35°36' E 139°54'0 0.0
2016-May-10 19:33N 35°36' E 139°54'0 0.0
2016-May-10 18:21N 35°36' E 139°54'0 0.1
2016-May-10 17:30N 35°36' E 139°54'0 0.0
2016-May-10 16:27N 35°36' E 139°54'0 0.0
2016-May-10 15:33N 35°36' E 139°54'0 0.1
2016-May-10 14:33N 35°36' E 139°54'0 0.0
2016-May-10 13:33N 35°36' E 139°54'0 0.0
2016-May-10 12:33N 35°36' E 139°54'0 0.0
2016-May-10 11:33N 35°36' E 139°54'0 0.1
2016-May-10 10:30N 35°36' E 139°54'0 0.0
2016-May-10 09:24N 35°36' E 139°54'0 0.1
2016-May-10 08:33N 35°36' E 139°54'0 0.0
2016-May-10 07:33N 35°36' E 139°54'2 2.4
2016-May-10 06:33N 35°37' E 139°57'4 4.4
2016-May-10 05:33N 35°41' E 139°57'0 0.0
2016-May-10 04:24N 35°41' E 139°57'2 2.4
2016-May-10 03:31N 35°39' E 139°58'4 4.5
2016-May-10 02:32N 35°36' E 139°54'0 0.0
2016-May-10 01:29N 35°36' E 139°54'0 0.1
2016-May-10 00:32N 35°36' E 139°54'0 0.0
2016-May-09 23:32N 35°36' E 139°54'0 0.0
2016-May-09 22:29N 35°36' E 139°54'0 0.0
2016-May-09 21:29N 35°36' E 139°54'0 0.0
2016-May-09 20:32N 35°36' E 139°54'0 0.0
2016-May-09 19:29N 35°36' E 139°54'0 0.0
2016-May-09 18:32N 35°36' E 139°54'0 0.0
2016-May-09 17:20N 35°36' E 139°54'0 0.0
2016-May-09 16:32N 35°36' E 139°54'0 0.0
2016-May-09 15:32N 35°36' E 139°54'0 0.0
2016-May-09 14:32N 35°36' E 139°54'0 0.0
2016-May-09 13:32N 35°36' E 139°54'0 0.0
2016-May-09 12:32N 35°36' E 139°54'0 0.0
2016-May-09 11:29N 35°36' E 139°54'0 0.1
2016-May-09 10:32N 35°36' E 139°54'0 0.0
2016-May-09 09:32N 35°36' E 139°54'0 0.1
2016-May-09 08:32N 35°36' E 139°54'0 0.0
2016-May-09 07:32N 35°36' E 139°54'0 0.0
2016-May-09 06:32N 35°36' E 139°54'0 0.0
2016-May-09 05:32N 35°36' E 139°54'0 0.0
2016-May-09 04:32N 35°36' E 139°54'0 0.0
2016-May-09 03:32N 35°36' E 139°54'0 0.0
2016-May-09 02:32N 35°36' E 139°54'0 0.0
2016-May-09 01:32N 35°36' E 139°54'0 0.0
2016-May-09 00:26N 35°36' E 139°54'0 0.0
2016-May-08 23:29N 35°36' E 139°54'0 0.0
2016-May-08 22:32N 35°36' E 139°54'0 0.0
2016-May-08 21:32N 35°36' E 139°54'0 0.0
2016-May-08 20:29N 35°36' E 139°54'0 0.1
2016-May-08 19:32N 35°36' E 139°54'0 0.0
2016-May-08 18:32N 35°36' E 139°54'3 2.5
2016-May-08 17:32N 35°34' E 139°53'9 9.1
2016-May-08 16:33N 35°26' E 139°48'  

Dump ship's entire track history